Time;durP1;ratioP1;P1;durP2;ratioP2;P2;SDS_P1;SDS_P2;PMS_P1;PMS_P2;Temp;Humidity;BMP_temperature;BMP_pressure;BME280_temperature;BME280_humidity;BME280_pressure;Samples;Min_cycle;Max_cycle;Signal;HPM_P1;HPM_P2
2023/04/24 00:00:31;;;;;;;9.80;4.00;;;;;;;9.83;65.89;100944.21;107692;1250;112643;-63
2023/04/24 00:03:20;;;;;;;13.10;4.50;;;;;;;9.77;65.75;100940.59;107654;1253;109918;-62
2023/04/24 00:05:51;;;;;;;8.80;4.90;;;;;;;9.77;65.72;100941.36;107703;1251;106950;-63
2023/04/24 00:08:19;;;;;;;12.90;4.70;;;;;;;9.75;65.26;100936.48;107702;1251;99167;-63
2023/04/24 00:10:48;;;;;;;15.00;4.90;;;;;;;9.74;65.29;100933.30;107896;1252;99690;-63
2023/04/24 00:13:16;;;;;;;12.40;4.70;;;;;;;9.72;65.03;100930.98;107765;1250;113093;-63
2023/04/24 00:15:45;;;;;;;20.40;4.80;;;;;;;9.70;64.97;100928.02;107694;1249;109603;-63
2023/04/24 00:18:14;;;;;;;10.00;5.20;;;;;;;9.68;64.85;100926.23;107661;1251;108714;-63
2023/04/24 00:20:43;;;;;;;29.20;5.00;;;;;;;9.62;65.30;100926.90;107677;1250;99205;-63
2023/04/24 00:23:14;;;;;;;12.20;4.70;;;;;;;9.58;65.34;100922.79;107610;1251;99718;-63
2023/04/24 00:25:45;;;;;;;13.20;5.90;;;;;;;9.51;65.84;100924.23;107677;1250;114359;-62
2023/04/24 00:28:13;;;;;;;16.80;5.10;;;;;;;9.45;65.80;100920.40;107625;1250;109953;-63
2023/04/24 00:30:42;;;;;;;22.60;5.50;;;;;;;9.46;65.95;100922.14;107639;1251;108676;-62
2023/04/24 00:33:10;;;;;;;16.60;4.50;;;;;;;9.47;66.06;100917.83;107674;1251;99147;-63
2023/04/24 00:35:38;;;;;;;9.20;4.50;;;;;;;9.42;66.47;100914.64;107736;1251;99147;-63
2023/04/24 00:38:07;;;;;;;14.00;5.10;;;;;;;9.36;66.20;100915.23;107585;1250;113486;-64
2023/04/24 00:40:36;;;;;;;7.20;4.60;;;;;;;9.34;66.15;100912.18;107604;1250;110607;-63
2023/04/24 00:43:04;;;;;;;13.20;4.70;;;;;;;9.33;66.30;100915.49;107513;1250;108224;-63
2023/04/24 00:45:33;;;;;;;16.40;4.50;;;;;;;9.34;66.38;100913.13;107554;1250;99163;-64
2023/04/24 00:48:02;;;;;;;14.60;4.20;;;;;;;9.31;66.30;100908.16;107644;1253;99723;-63
2023/04/24 00:50:31;;;;;;;8.10;3.80;;;;;;;9.27;66.10;100909.70;107794;1250;112094;-63
2023/04/24 00:53:00;;;;;;;9.90;4.40;;;;;;;9.24;66.11;100911.36;107766;1250;110099;-63
2023/04/24 00:55:29;;;;;;;8.50;4.20;;;;;;;9.22;66.18;100908.43;107779;1251;108309;-62
2023/04/24 00:57:58;;;;;;;10.90;4.40;;;;;;;9.21;66.06;100914.68;107783;1250;99011;-63
2023/04/24 01:00:27;;;;;;;9.90;4.20;;;;;;;9.19;66.24;100910.16;107789;1251;99054;-63
2023/04/24 01:02:57;;;;;;;10.10;4.60;;;;;;;9.20;66.28;100910.12;107664;1251;112650;-63
2023/04/24 01:05:31;;;;;;;9.90;4.50;;;;;;;9.20;66.34;100913.34;107810;1253;109652;-65
2023/04/24 01:08:01;;;;;;;7.60;3.80;;;;;;;9.17;66.33;100910.49;107612;1250;108727;-63
2023/04/24 01:10:32;;;;;;;4.70;4.10;;;;;;;9.16;66.34;100908.98;107667;1250;99459;-63
2023/04/24 01:13:01;;;;;;;10.00;3.90;;;;;;;9.16;66.62;100909.38;107586;1251;99832;-63
2023/04/24 01:15:29;;;;;;;8.00;4.10;;;;;;;9.15;66.43;100906.90;107741;1249;113232;-64
2023/04/24 01:17:58;;;;;;;9.30;4.50;;;;;;;9.12;66.17;100903.25;107684;1250;109652;-61
2023/04/24 01:20:29;;;;;;;8.50;4.20;;;;;;;9.05;66.02;100903.38;107564;1253;108174;-62
2023/04/24 01:22:59;;;;;;;12.90;4.50;;;;;;;9.01;66.21;100899.24;107571;1250;99197;-65
2023/04/24 01:25:29;;;;;;;9.60;4.40;;;;;;;8.97;66.16;100900.31;107629;1250;99687;-63
2023/04/24 01:27:58;;;;;;;8.50;4.60;;;;;;;8.94;66.26;100897.45;107575;1251;113511;-63
2023/04/24 01:30:27;;;;;;;6.90;3.50;;;;;;;8.91;66.12;100895.16;107723;1249;109707;-62
2023/04/24 01:32:59;;;;;;;7.00;4.20;;;;;;;8.89;66.32;100895.20;107691;1251;107683;-63
2023/04/24 01:35:27;;;;;;;7.90;4.90;;;;;;;8.85;66.19;100888.70;107620;1250;99159;-64
2023/04/24 01:37:56;;;;;;;10.40;4.90;;;;;;;8.83;66.22;100889.27;107733;1251;99699;-63
2023/04/24 01:40:25;;;;;;;12.90;4.70;;;;;;;8.80;66.23;100885.36;107876;1251;113929;-64
2023/04/24 01:42:54;;;;;;;11.20;4.40;;;;;;;8.76;66.29;100885.30;107678;1250;109930;-63
2023/04/24 01:45:23;;;;;;;8.20;4.10;;;;;;;8.73;66.44;100885.34;107550;1250;107416;-62
2023/04/24 01:47:52;;;;;;;13.50;4.70;;;;;;;8.70;66.60;100882.91;107644;1251;99132;-63
2023/04/24 01:50:20;;;;;;;7.50;4.50;;;;;;;8.69;66.75;100877.10;107627;1249;99038;-64
2023/04/24 01:52:49;;;;;;;14.70;4.40;;;;;;;8.68;66.70;100879.12;107644;1251;114073;-63
2023/04/24 01:55:17;;;;;;;16.60;5.20;;;;;;;8.67;66.75;100877.29;107573;1250;110134;-62
2023/04/24 01:57:46;;;;;;;11.30;4.00;;;;;;;8.65;66.76;100872.38;107587;1256;108763;-63
2023/04/24 02:00:14;;;;;;;12.40;4.60;;;;;;;8.66;67.12;100864.48;107646;1250;99211;-62
2023/04/24 02:02:43;;;;;;;17.20;4.90;;;;;;;8.67;66.95;100867.63;107618;1250;99073;-63
2023/04/24 02:05:15;;;;;;;8.10;4.50;;;;;;;8.64;66.95;100867.15;107713;1251;112791;-63
2023/04/24 02:07:44;;;;;;;8.50;4.50;;;;;;;8.60;67.03;100864.88;107717;1251;109210;-63
2023/04/24 02:10:12;;;;;;;16.50;5.00;;;;;;;8.58;66.91;100865.06;107718;1253;107519;-62
2023/04/24 02:12:44;;;;;;;10.40;4.70;;;;;;;8.55;66.96;100864.29;107580;1252;99364;-63
2023/04/24 02:15:12;;;;;;;6.20;4.00;;;;;;;8.51;67.04;100859.90;107720;1250;99195;-63
2023/04/24 02:17:42;;;;;;;11.30;4.20;;;;;;;8.48;67.05;100856.07;107604;1251;113448;-62
2023/04/24 02:20:10;;;;;;;16.40;5.40;;;;;;;8.44;67.24;100856.98;107611;1251;109994;-62
2023/04/24 02:22:39;;;;;;;10.50;4.60;;;;;;;8.41;67.40;100856.16;107609;1250;107663;-62
2023/04/24 02:25:08;;;;;;;14.50;4.00;;;;;;;8.37;67.26;100860.60;107605;1251;99215;-61
2023/04/24 02:27:36;;;;;;;10.90;4.50;;;;;;;8.37;67.64;100856.88;107684;1250;99153;-62
2023/04/24 02:30:08;;;;;;;14.50;4.80;;;;;;;8.38;67.83;100860.20;107794;1250;112027;-62
2023/04/24 02:32:36;;;;;;;13.50;5.00;;;;;;;8.40;67.63;100859.34;107588;1251;109037;-62
2023/04/24 02:35:05;;;;;;;8.80;4.70;;;;;;;8.39;67.75;100860.77;107774;1253;108475;-62
2023/04/24 02:37:34;;;;;;;9.10;4.40;;;;;;;8.38;67.55;100861.83;107656;1254;99155;-63
2023/04/24 02:40:05;;;;;;;11.50;5.00;;;;;;;8.36;67.69;100860.17;107641;1254;99826;-63
2023/04/24 02:42:33;;;;;;;13.10;4.70;;;;;;;8.33;67.51;100855.77;107584;1253;113535;-62
2023/04/24 02:45:02;;;;;;;6.10;4.20;;;;;;;8.30;67.57;100855.04;107605;1251;109886;-62
2023/04/24 02:47:31;;;;;;;16.50;4.60;;;;;;;8.27;67.72;100856.71;107581;1250;107335;-63
2023/04/24 02:50:02;;;;;;;20.60;5.00;;;;;;;8.25;67.74;100853.47;107633;1251;99166;-64
2023/04/24 02:52:31;;;;;;;37.60;6.10;;;;;;;8.26;67.92;100855.91;107677;1256;99284;-62
2023/04/24 02:54:59;;;;;;;15.80;5.60;;;;;;;8.25;67.84;100853.69;107733;1251;113076;-63
2023/04/24 02:57:27;;;;;;;11.30;4.20;;;;;;;8.24;67.77;100858.79;107609;1256;109811;-62
2023/04/24 02:59:56;;;;;;;8.30;4.50;;;;;;;8.22;67.88;100851.40;107622;1256;108270;-62
2023/04/24 03:02:24;;;;;;;5.90;4.60;;;;;;;8.21;67.81;100851.86;107498;1251;99164;-63
2023/04/24 03:04:53;;;;;;;8.70;4.70;;;;;;;8.19;67.83;100849.51;107817;1251;99781;-63
2023/04/24 03:07:21;;;;;;;5.60;3.90;;;;;;;8.19;67.77;100852.51;107720;1253;113883;-62
2023/04/24 03:09:50;;;;;;;14.30;4.20;;;;;;;8.20;68.06;100851.37;107681;1251;109245;-63
2023/04/24 03:12:18;;;;;;;6.40;3.80;;;;;;;8.20;68.11;100850.84;107715;1250;108563;-63
2023/04/24 03:14:47;;;;;;;11.60;4.80;;;;;;;8.18;67.97;100852.60;107570;1251;99249;-62
2023/04/24 03:17:15;;;;;;;13.60;5.70;;;;;;;8.18;68.30;100853.84;107737;1251;99729;-63
2023/04/24 03:19:44;;;;;;;6.60;4.40;;;;;;;8.20;68.51;100857.65;107570;1251;113576;-63
2023/04/24 03:22:13;;;;;;;11.80;4.50;;;;;;;8.20;68.35;100860.51;107620;1256;110348;-64
2023/04/24 03:24:41;;;;;;;12.60;5.20;;;;;;;8.23;68.46;100864.20;107639;1251;107638;-62
2023/04/24 03:27:11;;;;;;;16.90;5.20;;;;;;;8.25;68.45;100860.45;107653;1251;99207;-62
2023/04/24 03:29:58;;;;;;;9.50;5.70;;;;;;;8.24;68.71;100864.99;107660;1251;99252;-61
2023/04/24 03:32:43;;;;;;;10.80;5.50;;;;;;;8.19;68.59;100868.96;107609;1251;113191;-63
2023/04/24 03:35:14;;;;;;;22.00;6.10;;;;;;;8.16;68.51;100871.51;107757;1252;109562;-62
2023/04/24 03:37:42;;;;;;;13.80;5.80;;;;;;;8.19;68.93;100872.39;107739;1251;107677;-62
2023/04/24 03:40:30;;;;;;;20.20;5.60;;;;;;;8.24;69.28;100871.06;107780;1251;99165;-63
2023/04/24 03:42:59;;;;;;;13.80;5.10;;;;;;;8.29;69.27;100871.77;107757;1253;99191;-63
2023/04/24 03:45:29;;;;;;;25.70;5.70;;;;;;;8.35;69.27;100872.71;107761;1250;113104;-64
2023/04/24 03:47:58;;;;;;;35.70;5.60;;;;;;;8.41;69.05;100875.30;107660;1251;111553;-62
2023/04/24 03:50:28;;;;;;;11.50;5.30;;;;;;;8.46;69.20;100877.44;107538;1253;107222;-63
2023/04/24 03:52:58;;;;;;;18.50;6.50;;;;;;;8.50;69.16;100886.31;107543;1256;99378;-62
2023/04/24 03:55:37;;;;;;;30.20;8.20;;;;;;;8.51;69.19;100884.40;107783;1253;99195;-62
2023/04/24 03:58:06;;;;;;;19.80;5.10;;;;;;;8.54;69.39;100887.73;107677;1251;113124;-62
2023/04/24 04:00:37;;;;;;;15.50;5.50;;;;;;;8.59;69.31;100888.80;107617;1251;109520;-64
2023/04/24 04:03:28;;;;;;;15.30;6.40;;;;;;;8.61;69.27;100884.67;107577;1251;108148;-63
2023/04/24 04:05:58;;;;;;;18.00;7.20;;;;;;;8.68;69.75;100885.07;107641;1249;99172;-63
2023/04/24 04:08:26;;;;;;;15.00;5.00;;;;;;;8.73;69.77;100883.20;107732;1251;99165;-63
2023/04/24 04:10:55;;;;;;;22.40;5.60;;;;;;;8.78;69.65;100879.78;107821;1253;113629;-63
2023/04/24 04:13:25;;;;;;;26.40;6.90;;;;;;;8.85;69.98;100875.68;107642;1251;109601;-61
2023/04/24 04:15:57;;;;;;;25.90;6.50;;;;;;;8.93;69.92;100878.27;107692;1251;107115;-62
2023/04/24 04:18:26;;;;;;;24.00;5.80;;;;;;;9.01;70.01;100879.59;107600;1250;99220;-62
2023/04/24 04:20:56;;;;;;;18.00;6.30;;;;;;;9.07;69.80;100879.45;107713;1251;99081;-61
2023/04/24 04:23:25;;;;;;;21.00;6.20;;;;;;;9.17;70.08;100882.09;107669;1251;112767;-62
2023/04/24 04:26:06;;;;;;;22.10;5.50;;;;;;;9.28;70.24;100886.00;107689;1251;109520;-63
2023/04/24 04:29:00;;;;;;;18.30;5.40;;;;;;;9.32;70.50;100882.63;107674;1251;108569;-62
2023/04/24 04:31:30;;;;;;;10.60;5.20;;;;;;;9.36;70.73;100884.13;107610;1250;99207;-63
2023/04/24 04:34:02;;;;;;;9.50;6.00;;;;;;;9.44;70.90;100885.84;107788;1254;99170;-63
2023/04/24 04:36:32;;;;;;;14.00;5.90;;;;;;;9.50;70.91;100885.29;107582;1251;112791;-61
2023/04/24 04:39:08;;;;;;;14.70;6.20;;;;;;;9.55;70.71;100882.94;107624;1251;111559;-63
2023/04/24 04:41:50;;;;;;;15.80;6.50;;;;;;;9.62;70.54;100880.94;107635;1251;108163;-63
2023/04/24 04:44:19;;;;;;;10.50;5.10;;;;;;;9.67;70.70;100881.75;107649;1251;99171;-62
2023/04/24 04:46:49;;;;;;;9.80;6.10;;;;;;;9.71;70.78;100880.21;107648;1251;99157;-64
2023/04/24 04:49:28;;;;;;;15.00;5.20;;;;;;;9.72;70.79;100883.86;107580;1251;111489;-62
2023/04/24 04:51:57;;;;;;;14.50;5.90;;;;;;;9.74;71.01;100881.60;107554;1250;108271;-61
2023/04/24 04:54:27;;;;;;;10.40;5.50;;;;;;;9.76;70.71;100884.10;107781;1251;107122;-63
2023/04/24 04:56:57;;;;;;;16.30;5.90;;;;;;;9.79;70.81;100882.73;107659;1251;99189;-62
2023/04/24 04:59:27;;;;;;;18.30;5.70;;;;;;;9.84;70.80;100882.70;107650;1252;99165;-62
2023/04/24 05:02:00;;;;;;;56.20;7.30;;;;;;;9.92;70.77;100883.79;107590;1251;112553;-61
2023/04/24 05:04:29;;;;;;;24.90;6.00;;;;;;;10.02;70.84;100884.77;107922;1251;110367;-62
2023/04/24 05:06:59;;;;;;;27.60;6.10;;;;;;;10.11;70.63;100885.77;107593;1251;108190;-62
2023/04/24 05:09:29;;;;;;;25.80;6.40;;;;;;;10.19;70.46;100884.36;107769;1251;99275;-62
2023/04/24 05:12:07;;;;;;;;;;;;;;;10.24;70.55;100890.64;107653;1251;99192;-66
2023/04/24 05:14:44;;;;;;;23.30;5.60;;;;;;;10.24;70.40;100885.98;107755;1251;112957;-62
2023/04/24 05:17:14;;;;;;;19.80;6.10;;;;;;;10.28;70.27;100883.28;107906;1248;109756;-64
2023/04/24 05:19:44;;;;;;;19.20;6.40;;;;;;;10.33;70.11;100885.74;107710;1251;107269;-63
2023/04/24 05:22:14;;;;;;;21.30;6.10;;;;;;;10.41;70.06;100883.43;107710;1251;99198;-63
2023/04/24 05:24:48;;;;;;;16.50;6.00;;;;;;;10.50;70.01;100886.96;107598;1251;99289;-63
2023/04/24 05:27:55;;;;;;;;;;;;;;;;;;;;;
2023/04/24 05:30:30;;;;;;;14.50;5.50;;;;;;;10.66;69.59;100887.38;107643;1254;109804;-63
2023/04/24 05:33:01;;;;;;;23.30;6.00;;;;;;;10.73;69.18;100886.60;107499;1251;107479;-63
2023/04/24 05:35:30;;;;;;;17.30;6.20;;;;;;;10.81;68.93;100886.69;107616;1251;99169;-62
2023/04/24 05:37:59;;;;;;;14.30;6.10;;;;;;;10.88;68.75;100883.01;107655;1251;99723;-63
2023/04/24 05:40:28;;;;;;;28.20;10.60;;;;;;;10.93;68.53;100887.22;107680;1249;112684;-63
2023/04/24 05:42:57;;;;;;;25.30;7.20;;;;;;;11.01;68.62;100885.07;107726;1251;109782;-61
2023/04/24 05:45:26;;;;;;;37.80;7.70;;;;;;;11.08;68.44;100887.86;107659;1251;108243;-62
2023/04/24 05:47:55;;;;;;;10.50;6.00;;;;;;;11.13;68.41;100885.13;107595;1252;99156;-63
2023/04/24 05:50:26;;;;;;;17.50;5.90;;;;;;;11.16;68.43;100881.63;107697;1251;99327;-63
2023/04/24 05:52:54;;;;;;;20.10;6.10;;;;;;;11.17;68.42;100880.44;107632;1251;112661;-62
2023/04/24 05:55:25;;;;;;;10.90;5.80;;;;;;;11.19;68.46;100879.69;107662;1251;108182;-63
2023/04/24 05:57:54;;;;;;;12.70;6.20;;;;;;;11.25;68.53;100879.55;107639;1251;108672;-62
2023/04/24 06:00:24;;;;;;;11.60;6.30;;;;;;;11.31;68.58;100875.45;107925;1251;99243;-62
2023/04/24 06:03:00;;;;;;;21.30;6.00;;;;;;;11.37;68.53;100877.94;107751;1252;99723;-62
2023/04/24 06:05:30;;;;;;;15.20;6.30;;;;;;;11.44;68.63;100877.49;107701;1251;112659;-63
2023/04/24 06:07:59;;;;;;;18.70;6.60;;;;;;;11.52;68.63;100872.45;107610;1251;109033;-63
2023/04/24 06:10:31;;;;;;;22.70;6.10;;;;;;;11.61;68.57;100870.05;107550;1253;108592;-63
2023/04/24 06:13:00;;;;;;;13.80;6.30;;;;;;;11.68;68.35;100866.17;107592;1251;99051;-65
2023/04/24 06:15:31;;;;;;;19.00;7.00;;;;;;;11.78;68.26;100866.52;107865;1253;99291;-64
2023/04/24 06:18:12;;;;;;;14.70;6.50;;;;;;;11.90;68.48;100863.59;107694;1251;114190;-62
2023/04/24 06:20:41;;;;;;;10.90;5.90;;;;;;;12.00;67.92;100867.17;107639;1254;109260;-62
2023/04/24 06:23:10;;;;;;;12.30;5.80;;;;;;;12.11;67.76;100865.66;107752;1251;108014;-64
2023/04/24 06:25:38;;;;;;;14.10;5.70;;;;;;;12.23;67.67;100861.85;107587;1251;99203;-63
2023/04/24 06:28:07;;;;;;;13.50;5.80;;;;;;;12.32;67.24;100862.45;107802;1251;99781;-63
2023/04/24 06:30:36;;;;;;;15.80;6.10;;;;;;;12.41;67.18;100862.15;107740;1250;113635;-63
2023/04/24 06:33:04;;;;;;;10.50;5.50;;;;;;;12.50;67.30;100862.30;107596;1251;108487;-62
2023/04/24 06:35:48;;;;;;;14.20;6.60;;;;;;;12.61;67.09;100866.52;107569;1251;108163;-63
2023/04/24 06:38:16;;;;;;;14.10;6.30;;;;;;;12.69;66.64;100866.48;107597;1251;99928;-64
2023/04/24 06:40:45;;;;;;;19.30;6.00;;;;;;;12.75;66.58;100868.30;107771;1251;99496;-63
2023/04/24 06:43:14;;;;;;;16.80;5.90;;;;;;;12.81;66.36;100870.69;107613;1251;113039;-63
2023/04/24 06:45:43;;;;;;;12.10;6.00;;;;;;;12.90;65.87;100862.11;107742;1256;109699;-63
2023/04/24 06:48:12;;;;;;;11.90;5.10;;;;;;;12.98;65.59;100861.54;107687;1252;108621;-63
2023/04/24 06:50:41;;;;;;;16.30;6.10;;;;;;;13.06;65.43;100858.99;107737;1249;99255;-62
2023/04/24 06:53:10;;;;;;;14.50;6.20;;;;;;;13.13;65.34;100857.38;107734;1251;99310;-62
2023/04/24 06:55:39;;;;;;;20.90;6.10;;;;;;;13.24;65.36;100857.93;107808;1249;113528;-62
2023/04/24 06:58:07;;;;;;;17.70;5.50;;;;;;;13.36;65.08;100856.59;107777;1251;109123;-63
2023/04/24 07:00:36;;;;;;;14.60;5.40;;;;;;;13.49;65.10;100854.44;107762;1251;108857;-63
2023/04/24 07:03:07;;;;;;;14.60;6.00;;;;;;;13.61;65.15;100848.71;107583;1251;99167;-64
2023/04/24 07:05:36;;;;;;;19.80;6.00;;;;;;;13.74;64.82;100851.02;107817;1250;99250;-63
2023/04/24 07:08:06;;;;;;;13.50;5.50;;;;;;;13.86;64.56;100847.52;107729;1250;113371;-63
2023/04/24 07:10:35;;;;;;;14.40;4.70;;;;;;;13.96;64.22;100851.49;107793;1251;108115;-61
2023/04/24 07:13:04;;;;;;;16.20;5.60;;;;;;;14.09;63.92;100847.34;107642;1251;107764;-63
2023/04/24 07:15:32;;;;;;;15.30;5.10;;;;;;;14.22;63.70;100845.47;107820;1251;99189;-63
2023/04/24 07:18:01;;;;;;;12.70;5.10;;;;;;;14.35;63.66;100844.48;107768;1253;99781;-63
2023/04/24 07:20:33;;;;;;;9.60;5.20;;;;;;;14.49;63.16;100844.63;107774;1251;113505;-63
2023/04/24 07:23:02;;;;;;;13.60;5.20;;;;;;;14.61;62.52;100845.54;107670;1251;109168;-63
2023/04/24 07:25:31;;;;;;;9.70;5.00;;;;;;;14.72;61.61;100842.27;107847;1250;109068;-64
2023/04/24 07:28:00;;;;;;;11.20;4.80;;;;;;;14.81;61.39;100842.48;107767;1249;99198;-62
2023/04/24 07:30:29;;;;;;;10.80;5.20;;;;;;;14.89;60.55;100841.61;107798;1251;99691;-61
2023/04/24 07:32:57;;;;;;;13.90;5.20;;;;;;;14.93;59.71;100845.38;107769;1250;113096;-63
2023/04/24 07:35:26;;;;;;;22.00;5.40;;;;;;;14.94;59.20;100844.14;107812;1250;109130;-62
2023/04/24 07:37:55;;;;;;;10.10;5.10;;;;;;;14.99;59.35;100846.73;107827;1249;108493;-63
2023/04/24 07:40:24;;;;;;;15.10;5.00;;;;;;;15.04;59.16;100840.17;107897;1249;99154;-62
2023/04/24 07:42:55;;;;;;;14.40;4.80;;;;;;;15.13;59.17;100839.46;107918;1249;99018;-63
2023/04/24 07:45:25;;;;;;;14.50;5.70;;;;;;;15.21;59.10;100838.26;107626;1251;113125;-62
2023/04/24 07:47:54;;;;;;;11.40;5.20;;;;;;;15.25;58.91;100834.20;107613;1250;109771;-62
2023/04/24 07:50:23;;;;;;;14.10;3.80;;;;;;;15.35;54.54;100829.56;107854;1248;108647;-61
2023/04/24 07:52:51;;;;;;;10.50;3.90;;;;;;;15.48;50.95;100830.56;107883;1251;99181;-64
2023/04/24 07:55:19;;;;;;;8.30;3.40;;;;;;;15.60;50.64;100828.10;107916;1248;99707;-63
2023/04/24 07:57:53;;;;;;;18.40;3.60;;;;;;;15.76;49.66;100826.15;107899;1251;113090;-62
2023/04/24 08:00:21;;;;;;;12.90;3.80;;;;;;;15.88;48.55;100829.41;107281;1251;854736;-61
2023/04/24 08:02:50;;;;;;;20.10;3.90;;;;;;;16.01;47.68;100827.80;107864;1250;107545;-63
2023/04/24 08:05:19;;;;;;;11.90;3.00;;;;;;;16.15;47.23;100828.81;107811;1251;99160;-61
2023/04/24 08:07:50;;;;;;;17.10;3.70;;;;;;;16.27;47.60;100821.15;107745;1250;99058;-62
2023/04/24 08:10:18;;;;;;;10.60;4.00;;;;;;;16.42;47.54;100819.59;107708;1250;113591;-62
2023/04/24 08:12:47;;;;;;;18.20;3.70;;;;;;;16.57;46.88;100822.47;107671;1251;110158;-65
2023/04/24 08:15:19;;;;;;;8.50;3.70;;;;;;;16.73;45.97;100822.05;107712;1251;106994;-62
2023/04/24 08:17:48;;;;;;;9.90;2.90;;;;;;;16.86;44.68;100815.66;107656;1250;99205;-62
2023/04/24 08:20:16;;;;;;;17.20;3.00;;;;;;;16.97;42.66;100817.77;107638;1249;99688;-63
2023/04/24 08:22:47;;;;;;;19.70;3.20;;;;;;;17.05;42.18;100815.79;107623;1250;113114;-62
2023/04/24 08:25:19;;;;;;;13.90;3.50;;;;;;;17.11;41.96;100819.05;107699;1250;108480;-64
2023/04/24 08:27:48;;;;;;;11.90;3.60;;;;;;;17.18;41.79;100820.23;107658;1251;108720;-63
2023/04/24 08:30:17;;;;;;;16.90;3.00;;;;;;;17.29;41.65;100818.69;107805;1251;99171;-62
2023/04/24 08:32:46;;;;;;;9.20;3.40;;;;;;;17.40;41.98;100818.06;107848;1252;99271;-63
2023/04/24 08:35:15;;;;;;;12.20;3.10;;;;;;;17.50;41.41;100810.85;107674;1250;111935;-63
2023/04/24 08:37:43;;;;;;;8.30;3.20;;;;;;;17.62;41.90;100802.84;107616;1251;110108;-62
2023/04/24 08:40:14;;;;;;;13.40;3.20;;;;;;;17.79;41.58;100803.31;107579;1253;109238;-64
2023/04/24 08:42:44;;;;;;;22.40;3.60;;;;;;;17.95;42.16;100800.02;107540;1250;99054;-63
2023/04/24 08:45:13;;;;;;;7.90;2.80;;;;;;;18.13;41.70;100805.46;107626;1250;99720;-63
2023/04/24 08:47:42;;;;;;;6.70;2.60;;;;;;;18.28;40.86;100801.67;107597;1250;112631;-62
2023/04/24 08:50:12;;;;;;;11.50;3.80;;;;;;;18.41;40.20;100804.66;107697;1248;109394;-63
2023/04/24 08:52:42;;;;;;;15.60;3.60;;;;;;;18.55;39.09;100804.42;107901;1252;108616;-62
2023/04/24 08:55:11;;;;;;;11.20;3.60;;;;;;;18.68;38.33;100803.55;107656;1250;99321;-62
2023/04/24 08:57:40;;;;;;;7.00;2.90;;;;;;;18.81;38.45;100797.30;107622;1250;99063;-63
2023/04/24 09:00:09;;;;;;;8.20;3.30;;;;;;;19.00;37.64;100802.57;107757;1249;113308;-63
2023/04/24 09:02:43;;;;;;;6.20;2.20;;;;;;;19.18;36.23;100801.39;107781;1249;110053;-64
2023/04/24 09:05:13;;;;;;;13.40;3.10;;;;;;;19.31;35.48;100803.45;107862;1252;108777;-63
2023/04/24 09:07:54;;;;;;;8.00;2.80;;;;;;;19.42;35.98;100795.39;107690;1251;99220;-63
2023/04/24 09:10:24;;;;;;;9.40;2.70;;;;;;;19.59;35.05;100798.11;107812;1248;99159;-62
2023/04/24 09:12:54;;;;;;;8.20;2.60;;;;;;;19.74;33.85;100793.38;107796;1250;114218;-62
2023/04/24 09:15:24;;;;;;;12.10;3.40;;;;;;;19.87;34.33;100787.88;107885;1249;107705;-62
2023/04/24 09:17:56;;;;;;;8.00;3.00;;;;;;;20.08;34.60;100786.98;107888;1252;107075;-63
2023/04/24 09:20:25;;;;;;;13.80;3.30;;;;;;;20.32;34.41;100781.00;107651;1250;99195;-63
2023/04/24 09:22:57;;;;;;;12.30;2.80;;;;;;;20.56;33.62;100782.77;107765;1251;99070;-64
2023/04/24 09:25:33;;;;;;;10.90;3.00;;;;;;;20.85;33.35;100774.87;107843;1250;112708;-63
2023/04/24 09:28:03;;;;;;;10.00;2.70;;;;;;;21.15;32.54;100771.93;107812;1251;110014;-63
2023/04/24 09:30:34;;;;;;;18.30;3.20;;;;;;;21.45;31.27;100772.48;107871;1248;108608;-62
2023/04/24 09:33:14;;;;;;;11.80;2.90;;;;;;;21.79;30.39;100770.31;107877;1248;99041;-64
2023/04/24 09:35:51;;;;;;;15.30;2.90;;;;;;;22.20;29.66;100765.30;107628;1251;99112;-63
2023/04/24 09:38:34;;;;;;;7.30;2.80;;;;;;;22.70;29.19;100762.56;107853;1251;113566;-64
2023/04/24 09:41:05;;;;;;;19.10;2.70;;;;;;;23.31;28.62;100755.59;107887;1248;109734;-64
2023/04/24 09:43:35;;;;;;;14.70;3.20;;;;;;;23.59;28.41;100757.77;107513;1249;108188;-65
2023/04/24 09:46:09;;;;;;;8.20;2.60;;;;;;;23.95;28.14;100756.52;107692;1250;99240;-65
2023/04/24 09:48:38;;;;;;;15.80;3.60;;;;;;;24.42;27.88;100747.91;107616;1250;99189;-64
2023/04/24 09:51:10;;;;;;;12.50;3.20;;;;;;;24.93;27.61;100735.59;107687;1250;112612;-65
2023/04/24 09:53:41;;;;;;;13.30;2.70;;;;;;;25.34;27.23;100739.79;107691;1250;108993;-65
2023/04/24 09:56:14;;;;;;;9.60;2.50;;;;;;;25.82;26.82;100744.27;107617;1251;108243;-64
2023/04/24 09:58:43;;;;;;;11.70;2.90;;;;;;;26.20;25.57;100740.48;107708;1250;99064;-65
2023/04/24 10:01:12;;;;;;;10.80;2.70;;;;;;;26.06;26.44;100720.86;107699;1253;99159;-64
2023/04/24 10:03:42;;;;;;;8.10;2.50;;;;;;;25.89;26.24;100726.09;107580;1250;113382;-64
2023/04/24 10:06:11;;;;;;;6.10;2.70;;;;;;;25.84;25.82;100739.63;107732;1250;110194;-67
2023/04/24 10:08:40;;;;;;;19.10;3.50;;;;;;;25.65;25.15;100726.89;107565;1250;107774;-63
2023/04/24 10:11:21;;;;;;;11.80;3.00;;;;;;;25.67;26.12;100716.61;107850;1248;99250;-65
2023/04/24 10:13:57;;;;;;;11.80;2.50;;;;;;;26.28;25.95;100715.85;107796;1251;99172;-64
2023/04/24 10:16:28;;;;;;;8.30;2.60;;;;;;;26.75;25.38;100715.05;107797;1250;113677;-63
2023/04/24 10:19:00;;;;;;;11.80;3.40;;;;;;;26.42;24.95;100705.70;107760;1253;110112;-64
2023/04/24 10:21:28;;;;;;;9.50;2.50;;;;;;;25.98;25.56;100711.91;107559;1250;107617;-64
2023/04/24 10:23:57;;;;;;;18.30;2.60;;;;;;;26.34;25.61;100698.39;107683;1250;99176;-64
2023/04/24 10:26:29;;;;;;;9.30;2.90;;;;;;;26.91;25.56;100693.23;107759;1251;99161;-63
2023/04/24 10:28:58;;;;;;;15.30;2.80;;;;;;;27.47;24.12;100706.38;107722;1252;112236;-64
2023/04/24 10:31:32;;;;;;;11.50;2.90;;;;;;;27.75;23.90;100697.56;107687;1251;110076;-65
2023/04/24 10:34:01;;;;;;;;;;;;;;;28.11;23.38;100700.73;107689;1249;108160;-64
2023/04/24 10:36:32;;;;;;;16.50;3.00;;;;;;;28.38;22.52;100696.39;107815;1251;99172;-64
2023/04/24 10:39:06;;;;;;;14.70;2.20;;;;;;;28.61;22.98;100698.83;107714;1251;99245;-64
2023/04/24 10:41:37;;;;;;;8.80;2.90;;;;;;;28.77;22.51;100693.12;107806;1250;112676;-64
2023/04/24 10:44:06;;;;;;;7.40;2.30;;;;;;;28.76;22.46;100686.63;107704;1250;109609;-63
2023/04/24 10:46:36;;;;;;;8.40;2.50;;;;;;;28.46;22.77;100684.88;107623;1250;108404;-64
2023/04/24 10:49:07;;;;;;;9.80;2.50;;;;;;;28.61;22.72;100686.92;107564;1250;99247;-64
2023/04/24 10:51:47;;;;;;;11.20;2.80;;;;;;;28.99;21.79;100676.95;107781;1250;99698;-65
2023/04/24 10:54:35;;;;;;;7.40;2.30;;;;;;;28.75;21.46;100684.34;107834;1250;113521;-64
2023/04/24 10:57:22;;;;;;;9.10;2.90;;;;;;;28.51;22.88;100675.70;107808;1250;110315;-66
2023/04/24 11:00:12;;;;;;;13.00;3.00;;;;;;;27.76;23.39;100675.02;107720;1249;108110;-63
2023/04/24 11:02:48;;;;;;;6.80;2.40;;;;;;;28.13;22.95;100670.67;107921;1248;99413;-65
2023/04/24 11:05:17;;;;;;;32.80;4.00;;;;;;;28.17;22.53;100667.66;107668;1248;99165;-66
2023/04/24 11:08:15;;;;;;;12.20;2.50;;;;;;;28.22;23.02;100670.98;107570;1254;112500;-64
2023/04/24 11:10:45;;;;;;;19.30;3.00;;;;;;;28.13;22.79;100672.55;107902;1248;109958;-64
2023/04/24 11:13:21;;;;;;;6.00;2.20;;;;;;;28.59;22.52;100668.38;107797;1249;108236;-64
2023/04/24 11:16:30;;;;;;;11.70;2.70;;;;;;;28.48;21.85;100664.43;107726;1248;99026;-65
2023/04/24 11:19:17;;;;;;;13.20;2.50;;;;;;;27.63;23.13;100662.79;107546;1253;99737;-65
2023/04/24 11:22:02;;;;;;;12.70;3.10;;;;;;;27.96;22.70;100655.23;107806;1248;112185;-63
2023/04/24 11:24:32;;;;;;;11.20;2.70;;;;;;;27.38;22.78;100664.48;107930;1247;110005;-64
2023/04/24 11:27:09;;;;;;;9.30;2.40;;;;;;;27.58;22.86;100657.23;107641;1252;108252;-64
2023/04/24 11:29:56;;;;;;;7.00;2.40;;;;;;;28.32;22.28;100655.17;107562;1253;99180;-64